createdAt,value
2018-04-26T00:00:47.404Z,16.90
2018-04-26T00:03:14.890Z,16.80
2018-04-26T00:05:43.142Z,16.60
2018-04-26T00:08:10.637Z,16.60
2018-04-26T00:10:38.182Z,16.50
2018-04-26T00:13:05.669Z,16.50
2018-04-26T00:15:33.153Z,16.30
2018-04-26T00:18:00.669Z,16.20
2018-04-26T00:20:28.156Z,16.10
2018-04-26T00:22:55.667Z,16.10
2018-04-26T00:25:23.926Z,15.90
2018-04-26T00:27:51.418Z,15.90
2018-04-26T00:30:18.925Z,15.90
2018-04-26T00:32:46.416Z,15.90
2018-04-26T00:35:13.934Z,15.80
2018-04-26T00:37:42.201Z,15.80
2018-04-26T00:40:09.694Z,15.80
2018-04-26T00:42:37.198Z,15.70
2018-04-26T00:45:04.700Z,15.60
2018-04-26T00:47:32.980Z,15.30
2018-04-26T00:50:00.482Z,15.20
2018-04-26T00:52:27.969Z,15.10
2018-04-26T00:54:55.461Z,14.90
2018-04-26T00:57:22.951Z,14.80
2018-04-26T00:59:50.441Z,14.60
2018-04-26T01:02:18.691Z,14.40
2018-04-26T01:04:46.955Z,14.40
2018-04-26T01:07:15.233Z,14.50
2018-04-26T01:09:43.489Z,14.60
2018-04-26T01:12:11.196Z,14.60
2018-04-26T01:14:39.447Z,14.60
2018-04-26T01:17:06.933Z,14.60
2018-04-26T01:19:35.201Z,14.70
2018-04-26T01:22:03.504Z,14.60
2018-04-26T01:24:31.023Z,14.60
2018-04-26T01:26:58.509Z,14.70
2018-04-26T01:29:25.992Z,14.70
2018-04-26T01:31:53.504Z,14.50
2018-04-26T01:34:20.994Z,14.40
2018-04-26T01:37:00.306Z,14.30
2018-04-26T01:39:27.784Z,14.20
2018-04-26T01:41:55.287Z,14.20
2018-04-26T01:44:22.795Z,14.10
2018-04-26T01:46:50.287Z,14.10
2018-04-26T01:49:18.567Z,13.90
2018-04-26T01:51:46.987Z,13.90
2018-04-26T01:54:14.504Z,13.90
2018-04-26T01:56:42.027Z,13.90
2018-04-26T01:59:09.527Z,13.90
2018-04-26T02:01:37.018Z,13.80
2018-04-26T02:04:04.517Z,13.70
2018-04-26T02:06:32.219Z,13.70
2018-04-26T02:08:59.725Z,13.70
2018-04-26T02:11:27.249Z,13.60
2018-04-26T02:13:55.533Z,13.60
2018-04-26T02:16:23.021Z,13.60
2018-04-26T02:18:50.510Z,13.60
2018-04-26T02:21:18.021Z,13.60
2018-04-26T02:23:45.533Z,13.60
2018-04-26T02:26:13.037Z,13.60
2018-04-26T02:28:40.553Z,13.50
2018-04-26T02:31:08.065Z,13.50
2018-04-26T02:33:35.560Z,13.50
2018-04-26T02:36:03.076Z,13.50
2018-04-26T02:38:30.569Z,13.50
2018-04-26T02:40:58.844Z,13.60
2018-04-26T02:43:26.350Z,13.60
2018-04-26T02:45:53.840Z,13.60
2018-04-26T02:48:21.331Z,13.60
2018-04-26T02:50:49.595Z,13.50
2018-04-26T02:53:17.095Z,13.50
2018-04-26T02:55:45.354Z,13.50
2018-04-26T02:58:13.637Z,13.50
2018-04-26T03:00:41.913Z,13.50
2018-04-26T03:03:09.431Z,13.50
2018-04-26T03:05:36.953Z,13.50
2018-04-26T03:08:05.213Z,13.50
2018-04-26T03:10:32.714Z,13.50
2018-04-26T03:13:00.203Z,13.50
2018-04-26T03:15:27.745Z,13.50
2018-04-26T03:17:55.266Z,13.40
2018-04-26T03:20:22.791Z,13.30
2018-04-26T03:22:50.291Z,13.30
2018-04-26T03:25:17.779Z,13.20
2018-04-26T03:27:46.066Z,13.20
2018-04-26T03:30:14.331Z,13.20
2018-04-26T03:32:42.596Z,13.30
2018-04-26T03:35:10.104Z,13.30
2018-04-26T03:37:37.594Z,13.30
2018-04-26T03:40:05.872Z,13.30
2018-04-26T03:42:34.164Z,13.30
2018-04-26T03:45:01.664Z,13.30
2018-04-26T03:47:29.954Z,13.20
2018-04-26T03:49:58.216Z,13.10
2018-04-26T03:52:26.624Z,13.10
2018-04-26T03:54:54.127Z,13.10
2018-04-26T03:57:22.371Z,13.00
2018-04-26T04:00:01.798Z,13.00
2018-04-26T04:02:41.152Z,13.00
2018-04-26T04:08:30.258Z,13.10
2018-04-26T04:10:57.750Z,13.10
2018-04-26T04:13:26.005Z,13.10
2018-04-26T04:15:53.519Z,13.10
2018-04-26T04:18:21.765Z,13.00
2018-04-26T04:20:49.260Z,13.00
2018-04-26T04:23:16.773Z,12.90
2018-04-26T04:25:44.261Z,12.90
2018-04-26T04:28:12.535Z,12.90
2018-04-26T04:30:40.038Z,12.90
2018-04-26T04:33:07.528Z,12.90
2018-04-26T04:35:35.037Z,13.00
2018-04-26T04:38:02.562Z,13.00
2018-04-26T04:40:30.059Z,13.00
2018-04-26T04:42:57.561Z,13.00
2018-04-26T04:45:25.067Z,13.00
2018-04-26T04:47:53.344Z,12.90
2018-04-26T04:50:21.616Z,12.80
2018-04-26T04:52:49.124Z,12.90
2018-04-26T04:55:16.628Z,12.80
2018-04-26T04:57:44.103Z,12.80
2018-04-26T05:00:11.612Z,12.80
2018-04-26T05:02:39.116Z,12.90
2018-04-26T05:05:06.655Z,12.90
2018-04-26T05:07:34.140Z,12.90
2018-04-26T05:10:01.617Z,12.80
2018-04-26T05:12:29.142Z,12.70
2018-04-26T05:14:56.626Z,12.70
2018-04-26T05:17:24.900Z,12.70
2018-04-26T05:19:52.388Z,12.70
2018-04-26T05:22:19.896Z,12.70
2018-04-26T05:24:47.404Z,12.70
2018-04-26T05:27:14.889Z,12.70
2018-04-26T05:29:43.221Z,12.70
2018-04-26T05:32:10.666Z,12.60
2018-04-26T05:34:38.159Z,12.60
2018-04-26T05:37:05.658Z,12.60
2018-04-26T05:39:33.919Z,12.50
2018-04-26T05:42:01.424Z,12.50
2018-04-26T05:44:28.917Z,12.50
2018-04-26T05:46:56.425Z,12.50
2018-04-26T05:49:24.693Z,12.50
2018-04-26T05:51:52.196Z,12.50
2018-04-26T05:54:19.695Z,12.40
2018-04-26T05:56:47.188Z,12.40
2018-04-26T05:59:14.684Z,12.30
2018-04-26T06:01:42.220Z,12.20
2018-04-26T06:04:10.473Z,12.10
2018-04-26T06:06:37.985Z,12.10
2018-04-26T06:09:05.523Z,12.10
2018-04-26T06:11:33.062Z,12.00
2018-04-26T06:14:00.561Z,12.00
2018-04-26T06:16:28.827Z,12.10
2018-04-26T06:18:56.330Z,12.00
2018-04-26T06:21:23.833Z,12.00
2018-04-26T06:23:52.822Z,12.00
2018-04-26T06:26:20.325Z,12.00
2018-04-26T06:28:48.569Z,11.90
2018-04-26T06:31:16.077Z,11.90
2018-04-26T06:33:44.337Z,11.90
2018-04-26T06:36:11.871Z,11.80
2018-04-26T06:38:39.360Z,12.00
2018-04-26T06:41:06.853Z,12.00
2018-04-26T06:43:34.343Z,12.00
2018-04-26T06:46:01.848Z,12.00
2018-04-26T06:48:30.141Z,11.90
2018-04-26T06:50:58.406Z,11.80
2018-04-26T06:53:25.898Z,11.80
2018-04-26T06:55:53.394Z,11.80
2018-04-26T06:58:20.881Z,11.70
2018-04-26T07:00:48.523Z,11.80
2018-04-26T07:03:16.064Z,11.80
2018-04-26T07:05:43.642Z,11.90
2018-04-26T07:08:11.100Z,11.90
2018-04-26T07:10:38.585Z,12.00
2018-04-26T07:13:06.116Z,11.90
2018-04-26T07:15:33.871Z,11.90
2018-04-26T07:18:01.359Z,11.70
2018-04-26T07:20:28.859Z,11.70
2018-04-26T07:22:56.357Z,11.70
2018-04-26T07:25:23.865Z,11.80
2018-04-26T07:27:51.367Z,11.90
2018-04-26T07:30:19.627Z,11.90
2018-04-26T07:32:47.123Z,11.90
2018-04-26T07:35:15.374Z,11.90
2018-04-26T07:37:42.900Z,11.80
2018-04-26T07:40:10.394Z,11.80
2018-04-26T07:42:37.888Z,11.90
2018-04-26T07:45:06.167Z,12.00
2018-04-26T07:47:34.420Z,11.90
2018-04-26T07:50:02.088Z,11.90
2018-04-26T07:52:29.585Z,11.80
2018-04-26T07:54:57.847Z,11.80
2018-04-26T07:57:25.348Z,11.80
2018-04-26T07:59:52.837Z,11.80
2018-04-26T08:02:20.378Z,11.70
2018-04-26T08:04:47.868Z,11.70
2018-04-26T08:07:15.352Z,11.70
2018-04-26T08:09:42.871Z,11.70
2018-04-26T08:12:10.376Z,11.70
2018-04-26T08:14:37.881Z,11.80
2018-04-26T08:17:05.362Z,11.80
2018-04-26T08:19:32.946Z,11.90
2018-04-26T08:22:00.382Z,11.90
2018-04-26T08:24:27.874Z,11.90
2018-04-26T08:26:55.388Z,12.00
2018-04-26T08:29:23.636Z,12.10
2018-04-26T08:31:51.128Z,12.10
2018-04-26T08:34:19.404Z,12.20
2018-04-26T08:36:47.685Z,12.20
2018-04-26T08:39:15.188Z,12.20
2018-04-26T08:41:42.689Z,12.20
2018-04-26T08:44:10.177Z,12.30
2018-04-26T08:46:38.436Z,12.30
2018-04-26T08:49:05.926Z,12.20
2018-04-26T08:51:33.433Z,12.20
2018-04-26T08:54:00.931Z,12.20
2018-04-26T08:56:28.416Z,12.20
2018-04-26T08:58:55.920Z,12.00
2018-04-26T09:01:23.436Z,12.00
2018-04-26T09:03:50.978Z,12.10
2018-04-26T09:06:18.465Z,12.20
2018-04-26T09:08:46.729Z,12.20
2018-04-26T09:11:14.999Z,12.10
2018-04-26T09:13:42.477Z,12.10
2018-04-26T09:16:09.988Z,12.10
2018-04-26T09:18:37.813Z,12.10
2018-04-26T09:21:06.061Z,12.20
2018-04-26T09:23:33.580Z,12.20
2018-04-26T09:26:01.059Z,12.20
2018-04-26T09:28:28.583Z,12.20
2018-04-26T09:30:56.841Z,12.10
2018-04-26T09:33:25.124Z,12.10
2018-04-26T09:35:52.627Z,12.10
2018-04-26T09:38:20.111Z,12.10
2018-04-26T09:40:47.619Z,12.10
2018-04-26T09:43:15.143Z,12.00
2018-04-26T09:45:43.396Z,12.20
2018-04-26T09:48:10.892Z,12.10
2018-04-26T09:50:38.385Z,12.20
2018-04-26T09:53:05.888Z,12.20
2018-04-26T09:55:33.385Z,12.20
2018-04-26T09:58:00.890Z,12.30
2018-04-26T10:00:28.412Z,12.30
2018-04-26T10:02:56.402Z,12.30
2018-04-26T10:05:29.628Z,12.20
2018-04-26T10:07:57.134Z,12.30
2018-04-26T10:10:24.651Z,12.30
2018-04-26T10:12:52.911Z,12.50
2018-04-26T10:15:21.198Z,12.50
2018-04-26T10:17:49.446Z,12.50
2018-04-26T10:20:17.138Z,12.50
2018-04-26T10:22:44.630Z,12.40
2018-04-26T10:25:12.112Z,12.50
2018-04-26T10:27:39.618Z,12.60
2018-04-26T10:30:07.120Z,12.60
2018-04-26T10:32:34.617Z,12.60
2018-04-26T10:35:02.123Z,12.50
2018-04-26T10:37:29.612Z,12.40
2018-04-26T10:39:57.111Z,12.40
2018-04-26T10:42:24.622Z,12.40
2018-04-26T10:44:52.874Z,12.50
2018-04-26T10:47:20.363Z,12.50
2018-04-26T10:49:47.867Z,12.60
2018-04-26T10:52:15.387Z,12.70
2018-04-26T10:54:43.643Z,12.80
2018-04-26T10:57:11.162Z,12.80
2018-04-26T10:59:38.677Z,12.80
2018-04-26T11:02:06.940Z,12.80
2018-04-26T11:04:34.463Z,12.80
2018-04-26T11:07:01.962Z,12.80
2018-04-26T11:09:29.437Z,12.80
2018-04-26T11:11:56.950Z,12.90
2018-04-26T11:14:24.437Z,13.00
2018-04-26T11:16:52.712Z,13.10
2018-04-26T11:19:20.212Z,13.10
2018-04-26T11:21:47.712Z,13.10
2018-04-26T11:24:15.209Z,13.00
2018-04-26T11:26:42.710Z,12.90
2018-04-26T11:29:10.977Z,12.90
2018-04-26T11:31:38.484Z,12.90
2018-04-26T11:34:06.020Z,12.90
2018-04-26T11:36:34.286Z,13.00
2018-04-26T11:39:01.789Z,13.00
2018-04-26T11:41:29.295Z,13.10
2018-04-26T11:43:56.805Z,13.10
2018-04-26T11:46:24.295Z,13.10
2018-04-26T11:48:51.794Z,13.20
2018-04-26T11:51:19.332Z,13.20
2018-04-26T11:53:46.840Z,13.10
2018-04-26T11:56:15.182Z,13.30
2018-04-26T11:58:43.386Z,13.30
2018-04-26T12:01:10.880Z,13.30
2018-04-26T12:03:38.398Z,13.30
2018-04-26T12:06:05.933Z,13.30
2018-04-26T12:08:33.424Z,13.20
2018-04-26T12:11:00.927Z,13.30
2018-04-26T12:13:29.205Z,13.40
2018-04-26T12:15:57.459Z,13.50
2018-04-26T12:18:24.976Z,13.50
2018-04-26T12:20:52.613Z,13.60
2018-04-26T12:23:20.100Z,13.80
2018-04-26T12:25:47.595Z,14.00
2018-04-26T12:28:15.108Z,14.10
2018-04-26T12:30:43.573Z,14.20
2018-04-26T12:33:11.059Z,14.20
2018-04-26T12:35:38.539Z,14.20
2018-04-26T12:38:06.032Z,14.20
2018-04-26T12:40:33.517Z,14.10
2018-04-26T12:43:01.199Z,14.10
2018-04-26T12:45:29.440Z,14.20
2018-04-26T12:47:56.932Z,14.10
2018-04-26T12:50:24.456Z,14.20
2018-04-26T12:52:51.933Z,14.30
2018-04-26T12:55:19.438Z,14.40
2018-04-26T12:57:46.933Z,14.40
2018-04-26T13:00:14.421Z,14.30
2018-04-26T13:02:41.937Z,14.50
2018-04-26T13:05:09.437Z,14.40
2018-04-26T13:07:36.933Z,14.30
2018-04-26T13:10:04.423Z,14.40
2018-04-26T13:12:31.924Z,14.30
2018-04-26T13:14:59.400Z,14.30
2018-04-26T13:17:26.929Z,14.20
2018-04-26T13:19:54.413Z,14.20
2018-04-26T13:22:21.915Z,14.10
2018-04-26T13:24:49.594Z,14.10
2018-04-26T13:27:17.852Z,14.10
2018-04-26T13:29:45.386Z,14.10
2018-04-26T13:32:12.859Z,14.10
2018-04-26T13:34:40.359Z,14.10
2018-04-26T13:37:08.644Z,14.00
2018-04-26T13:39:36.893Z,14.20
2018-04-26T13:42:04.379Z,14.10
2018-04-26T13:44:32.641Z,14.20
2018-04-26T13:47:00.131Z,14.20
2018-04-26T13:49:27.635Z,14.30
2018-04-26T13:51:55.170Z,14.50
2018-04-26T13:54:22.649Z,14.60
2018-04-26T13:56:50.141Z,14.70
2018-04-26T13:59:17.644Z,14.70
2018-04-26T14:01:45.901Z,14.70
2018-04-26T14:04:13.394Z,14.70
2018-04-26T14:06:40.903Z,14.60
2018-04-26T14:09:08.394Z,14.60
2018-04-26T14:11:36.661Z,14.60
2018-04-26T14:14:04.161Z,14.60
2018-04-26T14:16:32.407Z,14.60
2018-04-26T14:18:59.906Z,14.60
2018-04-26T14:21:27.396Z,14.60
2018-04-26T14:23:54.886Z,14.60
2018-04-26T14:26:22.392Z,14.60
2018-04-26T14:28:49.880Z,14.60
2018-04-26T14:31:17.373Z,14.70
2018-04-26T14:33:44.888Z,14.70
2018-04-26T14:36:12.386Z,14.70
2018-04-26T14:38:40.650Z,14.60
2018-04-26T14:41:08.145Z,14.60
2018-04-26T14:43:35.623Z,14.70
2018-04-26T14:46:03.900Z,14.60
2018-04-26T14:48:31.393Z,14.60
2018-04-26T14:50:58.895Z,14.70
2018-04-26T14:53:26.378Z,14.80
2018-04-26T14:55:53.867Z,14.80
2018-04-26T14:58:22.119Z,14.90
2018-04-26T15:00:49.603Z,14.90
2018-04-26T15:03:17.098Z,14.80
2018-04-26T15:05:44.579Z,14.90
2018-04-26T15:08:12.073Z,14.90
2018-04-26T15:10:39.578Z,15.00
2018-04-26T15:13:07.064Z,14.90
2018-04-26T15:15:34.729Z,15.00
2018-04-26T15:18:02.227Z,15.30
2018-04-26T15:20:29.711Z,15.40
2018-04-26T15:22:57.975Z,15.80
2018-04-26T15:25:25.465Z,15.80
2018-04-26T15:27:52.969Z,15.70
2018-04-26T15:30:20.464Z,15.70
2018-04-26T15:32:47.970Z,15.60
2018-04-26T15:35:15.472Z,15.50
2018-04-26T15:37:42.970Z,15.50
2018-04-26T15:40:11.234Z,15.30
2018-04-26T15:42:38.722Z,15.30
2018-04-26T15:45:06.224Z,15.30
2018-04-26T15:47:33.724Z,15.10
2018-04-26T15:50:01.223Z,15.10
2018-04-26T15:52:46.354Z,15.10
2018-04-26T15:55:34.416Z,15.00
2018-04-26T15:58:13.668Z,14.80
2018-04-26T16:00:58.858Z,14.70
2018-04-26T16:03:38.289Z,14.70
2018-04-26T16:06:32.442Z,14.70
2018-04-26T16:09:11.930Z,14.70
2018-04-26T16:11:51.936Z,14.50
2018-04-26T16:14:35.180Z,14.50
2018-04-26T16:17:41.898Z,14.40
2018-04-26T16:23:46.688Z,14.20
2018-04-26T16:26:26.850Z,14.20
2018-04-26T16:29:11.977Z,14.20
2018-04-26T16:31:57.276Z,14.20
2018-04-26T16:34:51.483Z,14.30
2018-04-26T16:37:36.609Z,14.40
2018-04-26T16:40:04.877Z,14.30
2018-04-26T16:42:33.151Z,14.30
2018-04-26T16:45:01.406Z,14.30
2018-04-26T16:47:28.899Z,14.20
2018-04-26T16:49:57.175Z,14.10
2018-04-26T16:52:24.661Z,14.10
2018-04-26T16:54:52.935Z,14.10
2018-04-26T16:57:21.198Z,14.00
2018-04-26T16:59:48.822Z,14.00
2018-04-26T17:02:16.244Z,13.90
2018-04-26T17:04:43.856Z,13.80
2018-04-26T17:07:11.289Z,13.70
2018-04-26T17:09:38.788Z,13.70
2018-04-26T17:12:06.300Z,13.50
2018-04-26T17:14:33.778Z,13.40
2018-04-26T17:17:01.330Z,13.30
2018-04-26T17:19:28.800Z,13.20
2018-04-26T17:21:56.286Z,13.20
2018-04-26T17:24:23.779Z,13.20
2018-04-26T17:26:51.289Z,13.30
2018-04-26T17:29:18.834Z,13.20
2018-04-26T17:31:47.098Z,13.10
2018-04-26T17:34:14.600Z,13.10
2018-04-26T17:36:42.108Z,13.00
2018-04-26T17:39:09.613Z,13.00
2018-04-26T17:41:37.092Z,12.80
2018-04-26T17:44:04.598Z,12.70
2018-04-26T17:46:32.118Z,12.60
2018-04-26T17:48:59.627Z,12.50
2018-04-26T17:51:27.185Z,12.30
2018-04-26T17:53:54.840Z,12.20
2018-04-26T17:56:22.332Z,12.10
2018-04-26T17:58:49.842Z,12.10
2018-04-26T18:01:17.358Z,12.10
2018-04-26T18:03:44.840Z,12.10
2018-04-26T18:06:13.092Z,11.90
2018-04-26T18:08:40.588Z,11.80
2018-04-26T18:11:08.072Z,11.80
2018-04-26T18:13:35.698Z,11.70
2018-04-26T18:16:03.970Z,11.60
2018-04-26T18:18:31.488Z,11.60
2018-04-26T18:20:58.984Z,11.60
2018-04-26T18:23:26.481Z,11.60
2018-04-26T18:25:53.974Z,11.50
2018-04-26T18:28:21.479Z,11.40
2018-04-26T18:30:48.970Z,11.30
2018-04-26T18:33:17.232Z,11.10
2018-04-26T18:35:45.548Z,11.10
2018-04-26T18:38:13.008Z,11.00
2018-04-26T18:40:40.514Z,11.00
2018-04-26T18:43:09.862Z,11.00
2018-04-26T18:45:35.512Z,11.00
2018-04-26T18:48:02.997Z,10.90
2018-04-26T18:50:30.505Z,10.80
2018-04-26T18:52:58.021Z,10.70
2018-04-26T18:55:25.512Z,10.60
2018-04-26T18:57:53.781Z,10.60
2018-04-26T19:00:21.289Z,10.60
2018-04-26T19:02:48.812Z,10.60
2018-04-26T19:05:16.275Z,10.60
2018-04-26T19:07:43.771Z,10.60
2018-04-26T19:10:11.268Z,10.50
2018-04-26T19:12:38.757Z,10.40
2018-04-26T19:15:06.292Z,10.30
2018-04-26T19:17:33.770Z,10.20
2018-04-26T19:20:01.345Z,10.20
2018-04-26T19:22:29.532Z,10.10
2018-04-26T19:24:57.012Z,10.10
2018-04-26T19:27:25.302Z,10.00
2018-04-26T19:29:52.792Z,9.90
2018-04-26T19:32:20.287Z,9.90
2018-04-26T19:34:47.785Z,9.90
2018-04-26T19:37:16.044Z,10.10
2018-04-26T19:39:43.558Z,10.00
2018-04-26T19:42:11.054Z,10.00
2018-04-26T19:44:38.553Z,10.00
2018-04-26T19:47:06.811Z,9.90
2018-04-26T19:49:34.314Z,9.90
2018-04-26T19:52:01.847Z,10.00
2018-04-26T19:54:30.130Z,9.90
2018-04-26T19:56:58.380Z,9.90
2018-04-26T19:59:26.647Z,9.90
2018-04-26T20:01:54.139Z,9.90
2018-04-26T20:04:21.639Z,9.80
2018-04-26T20:06:49.116Z,9.70
2018-04-26T20:09:16.617Z,9.60
2018-04-26T20:11:44.120Z,9.50
2018-04-26T20:14:11.596Z,9.50
2018-04-26T20:16:39.088Z,9.50
2018-04-26T20:19:06.580Z,9.40
2018-04-26T20:21:34.068Z,9.50
2018-04-26T20:24:02.328Z,9.50
2018-04-26T20:26:29.870Z,9.50
2018-04-26T20:28:57.357Z,9.50
2018-04-26T20:31:25.615Z,9.50
2018-04-26T20:33:53.096Z,9.50
2018-04-26T20:36:20.580Z,9.50
2018-04-26T20:38:48.840Z,9.50
2018-04-26T20:41:16.320Z,9.50
2018-04-26T20:43:44.572Z,9.30
2018-04-26T20:46:12.080Z,9.30
2018-04-26T20:48:41.382Z,9.30
2018-04-26T20:51:08.877Z,9.30
2018-04-26T20:53:36.353Z,9.30
2018-04-26T20:56:04.062Z,9.20
2018-04-26T20:58:32.332Z,9.10
2018-04-26T21:01:00.574Z,9.00
2018-04-26T21:03:28.061Z,9.00
2018-04-26T21:05:55.535Z,9.10
2018-04-26T21:08:23.829Z,9.10
2018-04-26T21:10:51.325Z,9.10
2018-04-26T21:13:18.821Z,9.00
2018-04-26T21:15:46.311Z,9.00
2018-04-26T21:18:13.799Z,8.90
2018-04-26T21:20:41.282Z,8.80
2018-04-26T21:23:08.777Z,8.70
2018-04-26T21:25:36.254Z,8.70
2018-04-26T21:28:04.549Z,8.60
2018-04-26T21:30:32.051Z,8.60
2018-04-26T21:32:59.531Z,8.60
2018-04-26T21:35:27.045Z,8.60
2018-04-26T21:37:55.284Z,8.70
2018-04-26T21:40:22.773Z,8.70
2018-04-26T21:42:51.033Z,8.80
2018-04-26T21:45:19.302Z,8.80
2018-04-26T21:47:46.793Z,8.70
2018-04-26T21:50:20.642Z,8.70
2018-04-26T21:52:53.675Z,8.70
2018-04-26T21:55:31.411Z,8.60
2018-04-26T21:58:04.602Z,8.60
2018-04-26T22:00:37.698Z,8.60
2018-04-26T22:03:05.191Z,8.50
2018-04-26T22:05:33.321Z,8.40
2018-04-26T22:08:00.809Z,8.40
2018-04-26T22:10:28.300Z,8.40
2018-04-26T22:12:55.804Z,8.40
2018-04-26T22:15:23.280Z,8.40
2018-04-26T22:17:50.761Z,8.40
2018-04-26T22:20:18.262Z,8.40
2018-04-26T22:22:45.759Z,8.30
2018-04-26T22:25:13.228Z,8.30
2018-04-26T22:27:40.700Z,8.20
2018-04-26T22:30:08.194Z,8.20
2018-04-26T22:32:35.681Z,8.20
2018-04-26T22:35:03.164Z,8.20
2018-04-26T22:37:30.683Z,8.20
2018-04-26T22:39:58.168Z,8.10
2018-04-26T22:42:25.647Z,8.10
2018-04-26T22:44:53.138Z,8.10
2018-04-26T22:47:20.706Z,8.20
2018-04-26T22:49:48.120Z,8.20
2018-04-26T22:52:15.602Z,8.30
2018-04-26T22:54:43.852Z,8.40
2018-04-26T22:57:11.344Z,8.40
2018-04-26T22:59:39.596Z,8.40
2018-04-26T23:02:07.100Z,8.40
2018-04-26T23:04:34.590Z,8.40
2018-04-26T23:07:02.071Z,8.50
2018-04-26T23:09:29.560Z,8.50
2018-04-26T23:11:57.817Z,8.40
2018-04-26T23:14:25.332Z,8.40
2018-04-26T23:16:52.810Z,8.40
2018-04-26T23:19:21.072Z,8.30
2018-04-26T23:21:48.554Z,8.30
2018-04-26T23:24:16.038Z,8.30
2018-04-26T23:26:43.542Z,8.20
2018-04-26T23:29:11.794Z,8.20
2018-04-26T23:31:39.271Z,8.20
2018-04-26T23:34:06.760Z,8.20
2018-04-26T23:36:34.237Z,8.20
2018-04-26T23:39:01.738Z,8.20
2018-04-26T23:41:29.216Z,8.20
2018-04-26T23:43:58.215Z,8.20
2018-04-26T23:46:25.690Z,8.20
2018-04-26T23:48:53.940Z,8.20
2018-04-26T23:51:21.429Z,8.20
2018-04-26T23:53:49.673Z,8.10
2018-04-26T23:56:17.616Z,8.10
2018-04-26T23:58:45.091Z,8.00
